Informes de METAR cercanos

 

LEXJ - Santander/Parayas, Spain
Distance from station: ESE 6km
Actualización: 03/04/2020 03:00
Muy nuboso
Muy nuboso
 Viento del varies
Viento: varies 4 km/h
Temperatura: 10°C
Rocío: 6°C
Humedad: 76%
Barómetro: 1020 hPa
Clouds: Muy nuboso
Visibilidad: 8 km
Cloud details: Muy nuboso 1280 m
Muy nuboso 1524 m
2020/04/03 01:00 LEXJ 030100Z AUTO VRB02KT 8000 BKN042 BKN050 10/06 Q1020
LEBB - Bilbao/Sondica, Spain
Distance from station: ESE 80km
Actualización: 03/04/2020 03:00
Few Clouds
Few Clouds
 Viento del E
Viento: E 6 km/h
Temperatura: 5°C
Rocío: 4°C
Humedad: 93%
Barómetro: 1020 hPa
Clouds: Few Clouds
Visibilidad: 10 km
Cloud details: Few Clouds 1219 m
2020/04/03 01:00 LEBB 030100Z AUTO 09003KT 9999 FEW040 05/04 Q1020
 
LEBL - Barcelona Airpor, Spain
Distance from station: ESE 726km
Actualización: 03/04/2020 03:00
Few Clouds
Few Clouds
 Viento del ONO
Viento: ONO 7 km/h
Temperatura: 10°C
Temp.Sensacion: 9°C
Rocío: 7°C
Humedad: 82%
Barómetro: 1014 hPa
Clouds: Few Clouds
Visibilidad: 10 km
Cloud details: Few Clouds 1524 m
2020/04/03 01:00 LEBL 030100Z 30004KT 9999 FEW050 10/07 Q1014 NOSIG
LEMD - Madrid/Barajas, Spain
Distance from station: S 325km
Actualización: 03/04/2020 03:00
Despejado
Despejado
 Viento del varies
Viento: varies 2 km/h
Temperatura: 6°C
Rocío: 4°C
Humedad: 87%
Barómetro: 1015 hPa
Resumen: Despejado
Visibilidad: greater than 10 km
2020/04/03 01:00 LEMD 030100Z VRB01KT CAVOK 06/04 Q1015 NOSIG
 
LPPT - Lisbon/Portela, Portugal
Distance from station: SO 663km
Actualización: 03/04/2020 03:00
Despejado
Despejado
 Viento del NE
Viento: NE 6 km/h
Temperatura: 11°C
Rocío: 9°C
Humedad: 88%
Barómetro: 1016 hPa
Resumen: Despejado
Visibilidad: greater than 10 km
2020/04/03 01:00 LPPT 030100Z 04003KT 310V080 CAVOK 11/09 Q1016
LECO - La Coruna/Alvedr, Spain
Distance from station: O 349km
Actualización: 03/04/2020 03:00
Despejado
Despejado
 Viento del varies
Viento: varies 2 km/h
Temperatura: 8°C
Rocío: 5°C
Humedad: 82%
Barómetro: 1019 hPa
Resumen: Despejado
Visibilidad: greater than 10 km
2020/04/03 01:00 LECO 030100Z AUTO VRB01KT CAVOK 08/05 Q1019
 
LEST - Santiago/Labacol, Spain
Distance from station: O 358km
Actualización: 03/04/2020 03:00
Few Clouds
Few Clouds
 Viento del ENE
Viento: ENE 6 km/h
Temperatura: 6°C
Rocío: 4°C
Humedad: 87%
Barómetro: 1017 hPa
Clouds: Few Clouds
Visibilidad: 10 km
Cloud details: Few Clouds 549 m
2020/04/03 01:00 LEST 030100Z 07003KT 010V110 9999 FEW018 06/04 Q1017 NOSIG
EBBR - Brussels International Airport, Belgium
Distance from station: O 1339km
Actualización: 03/04/2020 02:50
Despejado
Despejado
 Viento del OSO
Viento: OSO 15 km/h
Temperatura: 7°C
Temp.Sensacion: 4°C
Rocío: 4°C
Humedad: 81%
Barómetro: 1013 hPa
Resumen: Despejado
Visibilidad: greater than 10 km
2020/04/03 00:50 EBBR 030050Z 25008KT CAVOK 07/04 Q1013 NOSIG